Flight Track Log - Related Links

Times and Time Zones

All times are in EDT time to prevent confusion due to time zone crossing. See the UAL481 flight status page for this flight to view local times or setup timezone preferences in your user account.

Time Position Orientation Groundspeed Altitude Reporting Facility
EDT Latitude Longitude Course Direction KTS MPH feet Rate Location/Type
Mon 06:13:14 PM 42.7653 -73.8061 324° Northwest 179 206 1,200  Level Boston Center
Mon 06:13:51 PM 42.7922 -73.8067 359° North 167 192 2,400 2,093 Climbing Boston Center
Mon 06:14:40 PM 42.8442 -73.8306 341° North 242 278 4,200 2,807 Climbing Boston Center
Mon 06:15:00 PM 42.8035 -74.1692 284° West  Level FlightAware Approximate
Mon 06:15:40 PM 42.8956 -73.8769 327° Northwest 264 304 7,500  Level Boston Center
Mon 06:16:00 PM 42.8262 -74.2941 284° West  Level FlightAware Approximate
Mon 06:16:40 PM 42.9658 -73.9411 326° Northwest 264 304 10,500  Level Boston Center
Mon 06:17:00 PM 42.8477 -74.4195 283° West  Level FlightAware Approximate
Mon 06:17:41 PM 43.0358 -73.9994 329° Northwest 304 350 11,900  Level Boston Center
Mon 06:18:00 PM 42.8738 -74.5405 324° Northwest  Level FlightAware Approximate
Mon 06:18:41 PM 43.1283 -74.0844 326° Northwest 354 407 14,700  Level Boston Center
Mon 06:19:39 PM 43.1472 -74.2103 282° West 341 392 16,700 2,168 Climbing Boston Center
Mon 06:20:40 PM 43.1531 -74.3697 273° West 370 426 19,000 2,033 Climbing Boston Center
Mon 06:21:40 PM 43.1544 -74.5236 271° West 393 452 20,800 1,624 Climbing Boston Center
Mon 06:22:53 PM 43.1558 -74.6828 271° West 407 468 22,600 1,669 Climbing Boston Center
Mon 06:23:53 PM 43.1581 -74.8736 271° West 420 483 24,500 1,678 Climbing Boston Center
Mon 06:24:51 PM 43.1586 -75.0331 270° West 420 483 25,900 1,261 Climbing Boston Center
Mon 06:25:52 PM 43.1589 -75.1983 270° West 425 489 27,000 992 Climbing Boston Center
Mon 06:26:52 PM 43.1608 -75.3719 271° West 437 503 27,900 744 Climbing Boston Center
Mon 06:27:53 PM 43.1611 -75.5231 270° West 442 509 28,500 942 Climbing Boston Center
Mon 06:28:53 PM 43.1625 -75.6939 271° West 442 509 29,800 706 Climbing Boston Center
Mon 06:29:52 PM 43.1619 -75.8589 270° West 442 509 29,900 50 Climbing Boston Center
Mon 06:30:52 PM 43.1631 -76.0269 271° West 442 509 29,900  Level Boston Center
Mon 06:31:52 PM 43.1617 -76.1978 269° West 442 509 29,900  Level Boston Center
Mon 06:33:03 PM 43.1600 -76.4047 269° West 442 509 29,900 46 Level Cleveland Center
Mon 06:34:03 PM 43.1619 -76.5725 271° West 442 509 30,000 50 Climbing Cleveland Center
Mon 06:35:03 PM 43.1592 -76.7408 269° West 442 509 30,000  Level Cleveland Center
Mon 06:36:03 PM 43.1586 -76.9117 270° West 442 509 30,000  Level Cleveland Center
Mon 06:37:03 PM 43.1575 -77.0825 270° West 447 514 30,000  Level Cleveland Center
Mon 06:38:03 PM 43.1564 -77.2506 270° West 447 514 30,000  Level Cleveland Center
Mon 06:39:03 PM 43.1547 -77.4214 269° West 447 514 30,000  Level Cleveland Center
Mon 06:40:03 PM 43.1531 -77.5894 269° West 447 514 30,000  Level Cleveland Center
Mon 06:41:03 PM 43.1511 -77.7603 269° West 447 514 30,000  Level Cleveland Center
Mon 06:42:03 PM 43.1511 -77.9425 270° West 447 514 30,000  Level Cleveland Center
Mon 06:43:03 PM 43.1464 -78.1019 268° West 436 502 30,000  Level Cleveland Center
Mon 06:44:03 PM 43.1433 -78.2558 268° West 426 490 30,000  Level Cleveland Center
Mon 06:45:03 PM 43.1422 -78.4181 270° West 420 483 30,000  Level Cleveland Center
Mon 06:46:03 PM 43.1369 -78.5775 267° West 425 489 30,000  Level Cleveland Center
Mon 06:47:03 PM 43.1333 -78.7342 268° West 425 489 30,000  Level Cleveland Center
Mon 06:48:03 PM 43.1294 -78.8906 268° West 420 483 30,000  Level Cleveland Center
Mon 06:49:30 PM 43.1167 -79.1000 265° West 420 483 30,000  Level Toronto Center
Mon 06:50:30 PM 43.1000 -79.2667 262° West 420 483 30,000  Level Toronto Center
Mon 06:51:30 PM 43.1000 -79.4333 270° West 430 495 30,000  Level Toronto Center
Mon 06:52:30 PM 43.1000 -79.5833 270° West 430 495 30,000  Level Toronto Center
Mon 06:53:30 PM 43.0833 -79.7500 262° West 430 495 30,000  Level Toronto Center
Mon 06:54:30 PM 43.0833 -79.9000 270° West 420 483 30,000  Level Toronto Center
Mon 06:55:30 PM 43.0833 -80.0667 270° West 420 483 30,000  Level Toronto Center
Mon 06:56:30 PM 43.0667 -80.2333 262° West 420 483 30,000  Level Toronto Center
Mon 06:57:30 PM 43.0667 -80.3833 270° West 420 483 30,000  Level Toronto Center
Mon 06:58:30 PM 43.0667 -80.5500 270° West 420 483 30,000  Level Toronto Center
Mon 06:59:30 PM 43.0500 -80.7000 261° West 410 472 30,000  Level Toronto Center
Mon 07:00:30 PM 43.0333 -80.8667 262° West 410 472 30,000  Level Toronto Center
Mon 07:01:30 PM 43.0167 -81.0000 260° West 410 472 30,000  Level Toronto Center
Mon 07:02:30 PM 43.0167 -81.1833 270° West 420 483 30,000  Level Toronto Center
Mon 07:03:30 PM 43.0167 -81.3167 270° West 420 483 30,000  Level Toronto Center
Mon 07:04:30 PM 43.0167 -81.4833 270° West 410 472 30,000  Level Toronto Center
Mon 07:05:30 PM 43.0167 -81.6333 270° West 410 472 30,000  Level Toronto Center
Mon 07:06:30 PM 43.0167 -81.8000 270° West 410 472 30,000  Level Toronto Center
Mon 07:07:30 PM 43.0000 -81.9667 262° West 400 460 30,000  Level Toronto Center
Mon 07:08:30 PM 43.0000 -82.1000 270° West 410 472 30,000  Level Toronto Center
Mon 07:10:27 PM 43.0086 -82.4003 272° West 401 461 30,000  Level Cleveland Center
Mon 07:11:27 PM 43.0061 -82.5536 269° West 401 461 30,000  Level Cleveland Center
Mon 07:12:27 PM 43.0014 -82.7067 268° West 401 461 30,000  Level Cleveland Center
Mon 07:13:27 PM 42.9964 -82.8542 267° West 401 461 30,000  Level Cleveland Center
Mon 07:14:27 PM 42.9914 -82.9986 267° West 401 461 30,000 850 Level Cleveland Center
Mon 07:15:27 PM 42.9883 -83.1433 268° West 401 461 31,700 1,000 Climbing Cleveland Center
Mon 07:16:27 PM 42.9831 -83.2794 267° West 379 436 32,000 150 Climbing Cleveland Center
Mon 07:17:27 PM 42.9986 -83.4164 279° West 368 423 32,000  Level Cleveland Center
Mon 07:18:27 PM 43.0181 -83.5478 281° West 368 423 32,000  Level Cleveland Center
Mon 07:19:27 PM 43.0353 -83.6850 280° West 368 423 32,000  Level Cleveland Center
Mon 07:20:27 PM 43.0606 -83.8342 283° West 368 423 32,000  Level Cleveland Center
Mon 07:21:27 PM 43.0817 -83.9631 283° West 363 418 32,000  Level Cleveland Center
Mon 07:22:27 PM 43.0717 -84.0961 264° West 351 404 32,000  Level Cleveland Center
Mon 07:23:27 PM 43.0464 -84.2339 256° West 357 411 32,000  Level Cleveland Center
Mon 07:24:27 PM 43.0197 -84.3547 253° West 363 418 32,000  Level Cleveland Center
Mon 07:25:27 PM 42.9944 -84.4894 256° West 369 425 32,000  Level Cleveland Center
Mon 07:26:41 PM 42.9633 -84.6492 255° West 369 425 32,000  Level Chicago Center
Mon 07:27:43 PM 42.9353 -84.7836 254° West 369 425 32,000  Level Chicago Center
Mon 07:28:45 PM 42.9028 -84.9436 255° West 366 421 32,000  Level Chicago Center
Mon 07:29:47 PM 42.8750 -85.0750 254° West 362 417 32,000 -484 Level Chicago Center
Mon 07:30:49 PM 42.8472 -85.2081 254° West 364 419 31,000 -919 Descending Chicago Center
Mon 07:31:51 PM 42.8194 -85.3431 254° West 368 423 30,100 -484 Descending Chicago Center
Mon 07:32:53 PM 42.7894 -85.4822 254° West 379 436 30,000 -48 Descending Chicago Center
Mon 07:33:55 PM 42.7642 -85.6211 256° West 379 436 30,000 -387 Level Chicago Center
Mon 07:34:57 PM 42.7403 -85.7561 256° West 370 426 29,200 -1,306 Descending Chicago Center
Mon 07:35:59 PM 42.7133 -85.8994 256° West 329 379 27,300 -2,032 Descending Chicago Center
Mon 07:37:01 PM 42.6914 -86.0214 256° West 328 377 25,000 -1,824 Descending Chicago Center
Mon 07:38:04 PM 42.6692 -86.1428 256° West 330 380 23,500 -1,536 Descending Chicago Center
Mon 07:39:06 PM 42.6478 -86.2600 256° West 323 372 21,800 -1,694 Descending Chicago Center
Mon 07:40:08 PM 42.6258 -86.3731 255° West 311 358 20,000 -1,645 Descending Chicago Center
Mon 07:41:10 PM 42.6050 -86.4842 256° West 307 353 18,400 -1,500 Descending Chicago Center
Mon 07:42:12 PM 42.5842 -86.5947 256° West 304 350 16,900 -1,645 Descending Chicago Center
Mon 07:43:14 PM 42.5614 -86.7247 257° West 297 342 15,000 -1,742 Descending Chicago Center
Mon 07:44:16 PM 42.5342 -86.8289 251° West 295 339 13,300 -1,742 Descending Chicago Center
Mon 07:45:18 PM 42.5072 -86.9267 250° West 283 326 11,400 -1,790 Descending Chicago Center
Mon 07:46:20 PM 42.4792 -87.0217 248° West 276 318 9,600 -1,161 Descending Chicago Center
Mon 07:47:22 PM 42.4522 -87.1167 249° West 272 313 9,000 -629 Descending Chicago Center
Mon 07:48:24 PM 42.4211 -87.2081 245° Southwest 269 310 8,300 -960 Descending Chicago Center
Mon 07:49:27 PM 42.3697 -87.3083 235° Southwest 272 313 7,000 -624 Descending Chicago Center
Mon 07:50:29 PM 42.3303 -87.3911 237° Southwest 266 306 7,000  Level Chicago Center
Mon 07:51:31 PM 42.2903 -87.4744 237° Southwest 263 303 7,000 -435 Level Chicago Center
Mon 07:52:33 PM 42.2503 -87.5578 237° Southwest 267 307 6,100 -871 Descending Chicago Center
Mon 07:53:35 PM 42.2133 -87.6375 238° Southwest 258 297 5,200 -726 Descending Chicago Center
Mon 07:54:37 PM 42.1678 -87.7097 230° Southwest 223 257 4,600 -726 Descending Chicago Center
Mon 07:55:39 PM 42.1247 -87.7561 219° Southwest 206 237 3,700 -774 Descending Chicago Center
Mon 07:56:41 PM 42.0897 -87.7964 221° Southwest 187 215 3,000 -774 Descending Chicago Center
Mon 07:57:43 PM 42.0553 -87.8339 219° Southwest 170 196 2,100 -774 Descending Chicago Center
Mon 07:58:45 PM 42.0256 -87.8667 219° Southwest 156 180 1,400 -677 Descending Chicago Center
Mon 08:00:00 PM 41.9817 -87.9067 217° Southwest  Level Estimated
Mon 08:07:00 PM 41.9817 -87.9067 217° Southwest  Level Estimated

Login

Don't have an account? Register now (free) for customized features, flight alerts, and more!